Nearby METAR Reports

Here are local weather reports from nearby weather stations and airports.

KHFD - Hartford/Brainar, Connecticut, USA
Distance from station: NE 5mi, 8km
Updated: Tue, 01/23/2018 10:18am EST
Light rain, Mist, Overcast
Light rain, Mist, Overcast
 Wind from N
Wind: N 5 mph , 7 km/h
Temperature: 37°F , 3°C
Wind Chill: 33°F , 1°C
Dew Point: 36°F , 2°C
Humidity: 93%
Barometer: 29.74 inHg , 1007.1 hPa
Summary: Light rain, Mist
Clouds: Overcast
Visibility: 3 miles , 5 km
Cloud details: Overcast 400 ft
2018/01/23 15:18 KHFD 231518Z 35004KT 3SM -RA BR OVC004 03/02 A2974 RMK AO2 PRESFR P0004 T00280022
KMMK - Meriden, Connecticut, USA
Distance from station: SSW 13mi, 21km
Updated: Tue, 01/23/2018 10:19am EST
Heavy rain, Mist, Overcast
Heavy rain, Mist, Overcast
 Wind from N
Wind: N 3 mph , 6 km/h
Temperature: 36°F , 2°C
Dew Point: 36°F , 2°C
Humidity: 100%
Barometer: 29.73 inHg , 1006.8 hPa
Summary: Heavy rain, Mist
Clouds: Overcast
Visibility: 1 3/4 miles , 5 km
Cloud details: Overcast 500 ft
2018/01/23 15:19 KMMK 231519Z AUTO 36003KT 1 3/4SM +RA BR OVC005 02/02 A2973 RMK AO2 P0009 T00170017
 
KBDL - Windsor Locks, Connecticut, USA
Distance from station: N 17mi, 28km
Updated: Tue, 01/23/2018 9:51am EST
Light rain, Mist, Overcast
Light rain, Mist, Overcast
 Wind from N
Wind: N 7 mph , 11 km/h
Temperature: 36°F , 2°C
Wind Chill: 30°F , -1°C
Dew Point: 36°F , 2°C
Humidity: 100%
Barometer: 29.75 inHg , 1007.5 hPa
Summary: Light rain, Mist
Clouds: Overcast
Visibility: 5 miles , 8 km
Cloud details: Overcast 600 ft
2018/01/23 14:51 KBDL 231451Z 36006KT 5SM R06/6000VP6000FT -RA BR OVC006 02/02 A2975 RMK AO2 SLP075 P0021 60049 T00170017 56047
KSNC - Chester, Connecticut, USA
Distance from station: SSE 24mi, 38km
Updated: Tue, 01/23/2018 10:15am EST
Rain, Overcast
Rain, Overcast
 Wind from S
Wind: S 12 mph , 19 km/h, Gust: 20 mph , 31 km/h
Temperature: 54°F , 12°C
Dew Point: 54°F , 12°C
Humidity: 100%
Barometer: 29.73 inHg , 1006.8 hPa
Summary: Rain
Clouds: Overcast
Visibility: 1 mile , 2 km
Cloud details: Overcast 200 ft
2018/01/23 15:15 KSNC 231515Z AUTO 19010G17KT 170V240 1SM RA OVC002 12/12 A2973 RMK AO2
 
KOXC - Oxford/Waterbury, Connecticut, USA
Distance from station: SW 26mi, 42km
Updated: Tue, 01/23/2018 10:26am EST
Light rain, Mist, Overcast
Light rain, Mist, Overcast
 Wind from S
Wind: S 9 mph , 15 km/h
Temperature: 50°F , 10°C
Wind Chill: 46°F , 8°C
Dew Point: 50°F , 10°C
Humidity: 100%
Barometer: 29.70 inHg , 1005.8 hPa
Summary: Light rain, Mist
Clouds: Overcast
Visibility: 3/4 mile , 5 km
Cloud details: Overcast 200 ft
2018/01/23 15:26 KOXC 231526Z 19008KT 3/4SM -RA BR OVC002 10/10 A2970 RMK AO2 VIS 1/2 V 1 P0013
KIJD - Willimantic, Connecticut, USA
Distance from station: E 28mi, 45km
Updated: Tue, 01/23/2018 10:23am EST
Light rain, Mist, Overcast
Light rain, Mist, Overcast
 Wind from S
Wind: S 12 mph , 19 km/h
Temperature: 54°F , 12°C
Dew Point: 52°F , 11°C
Humidity: 94%
Barometer: 29.73 inHg , 1006.8 hPa
Summary: Light rain, Mist
Clouds: Overcast
Visibility: 3 miles , 5 km
Cloud details: Mostly cloudy 1000 ft
Mostly cloudy 2800 ft
Overcast 7000 ft
2018/01/23 15:23 KIJD 231523Z AUTO 17010KT 3SM -RA BR BKN010 BKN028 OVC070 12/11 A2973 RMK AO2 P0013 T01170106
 
KHVN - New Haven/Tweed, Connecticut, USA
Distance from station: SSW 30mi, 48km
Updated: Tue, 01/23/2018 9:53am EST
Light rain, Fog, Overcast
Light rain, Fog, Overcast
 Wind from S
Wind: S 10 mph , 17 km/h
Temperature: 48°F , 9°C
Wind Chill: 44°F , 7°C
Dew Point: 48°F , 9°C
Humidity: 100%
Barometer: 29.72 inHg , 1006.4 hPa
Summary: Light rain, Fog
Clouds: Overcast
Visibility: 1/2 mile , 2 km
Cloud details: Mostly cloudy 300 ft
Mostly cloudy 900 ft
Overcast 2300 ft
2018/01/23 14:53 KHVN 231453Z 18009KT 1/2SM R02/2200VP6000FT -RA FG BKN003 BKN009 OVC023 09/09 A2972 RMK AO2 PK WND 19026/1419 SLP065 P0008 60025 T00940089 56044
KBAF - Westfield, Massachusetts, USA
Distance from station: 0 33mi, 54km
Updated: Tue, 01/23/2018 9:53am EST
Light rain, Mist, Overcast
Light rain, Mist, Overcast
 Wind from NNE
Wind: NNE 5 mph , 7 km/h
Temperature: 34°F , 1°C
Wind Chill: 29°F , -2°C
Dew Point: 34°F , 1°C
Humidity: 100%
Barometer: 29.74 inHg , 1007.1 hPa
Summary: Light rain, Mist
Clouds: Overcast
Visibility: 6 miles , 10 km
Cloud details: Few Clouds 400 ft
Overcast 900 ft
2018/01/23 14:53 KBAF 231453Z 02004KT 6SM -RA BR FEW004 OVC009 01/01 A2974 RMK AO2 SLP078 P0020 60049 T00110011 56047
 
KCEF - Chicopee/Westove, Massachusetts, USA
Distance from station: NNE 37mi, 60km
Updated: Tue, 01/23/2018 9:56am EST
Light rain, Mist, Overcast
Light rain, Mist, Overcast
 Wind from N
Wind: N 6 mph , 9 km/h
Temperature: 37°F , 3°C
Wind Chill: 32°F , 0°C
Dew Point: 37°F , 3°C
Humidity: 100%
Barometer: 29.73 inHg , 1006.8 hPa
Summary: Light rain, Mist
Clouds: Overcast
Visibility: 5 miles , 8 km
Cloud details: Overcast 300 ft
2018/01/23 14:56 KCEF 231456Z 01005KT 5SM -RA BR OVC003 03/03 A2973 RMK AO2A PRESFR SLP076 P0023 60049 T00260025 57049
KBDR - Bridgeport, Connecticut, USA
Distance from station: SSW 42mi, 67km
Updated: Tue, 01/23/2018 10:19am EST
Light rain, Fog, Overcast
Light rain, Fog, Overcast
 Wind from SSW
Wind: SSW 15 mph , 24 km/h
Temperature: 48°F , 9°C
Wind Chill: 42°F , 6°C
Dew Point: 48°F , 9°C
Humidity: 100%
Barometer: 29.72 inHg , 1006.4 hPa
Summary: Light rain, Fog
Clouds: Overcast
Visibility: 1/2 mile , 2 km
Cloud details: Mostly cloudy 300 ft
Overcast 800 ft
2018/01/23 15:19 KBDR 231519Z 21013KT 1/2SM -RA FG BKN003 OVC008 09/09 A2972 RMK AO2 P0009 T00940094
 
KGON - Groton/New Londo, Connecticut, USA
Distance from station: SE 42mi, 68km
Updated: Tue, 01/23/2018 10:16am EST
Rain, Mist, Overcast
Rain, Mist, Overcast
 Wind from S
Wind: S 18 mph , 30 km/h
Temperature: 46°F , 8°C
Wind Chill: 39°F , 4°C
Dew Point: 45°F , 7°C
Humidity: 93%
Barometer: 29.75 inHg , 1007.5 hPa
Summary: Rain, Mist
Clouds: Overcast
Visibility: 1 3/4 miles , 5 km
Cloud details: Mostly cloudy 1100 ft
Overcast 8000 ft
2018/01/23 15:16 KGON 231516Z 17016KT 1 3/4SM R05/5500VP6000FT RA BR BKN011 OVC080 08/07 A2975 RMK AO2 T00830072 PNO $
KDXR - Danbury, Connecticut, USA
Distance from station: WSW 45mi, 73km
Updated: Tue, 01/23/2018 10:07am EST
Light rain, Overcast
Light rain, Overcast
 Wind from S
Wind: S 13 mph , 20 km/h, Gust: 23 mph , 37 km/h
Temperature: 54°F , 12°C
Dew Point: 52°F , 11°C
Humidity: 94%
Barometer: 29.70 inHg , 1005.8 hPa
Summary: Light rain
Clouds: Overcast
Visibility: 7 miles , 11 km
Cloud details: Mostly cloudy 600 ft
Overcast 1000 ft
2018/01/23 15:07 KDXR 231507Z 19011G20KT 150V230 7SM -RA BKN006 OVC010 12/11 A2970 RMK AO2 CIG 004V008 P0000 T01170111